Time;durP1;ratioP1;P1;durP2;ratioP2;P2;SDS_P1;SDS_P2;PMS_P1;PMS_P2;Temp;Humidity;BMP_temperature;BMP_pressure;BME280_temperature;BME280_humidity;BME280_pressure;Samples;Min_cycle;Max_cycle;Signal;HPM_P1;HPM_P2
2021/09/16 00:00:33;;;;;;;1.90;1.70;;;;;;;20.86;66.49;96494.59;5092454;28;20186;-67
2021/09/16 00:02:59;;;;;;;2.07;1.97;;;;;;;20.85;66.38;96503.63;5091910;28;20289;-67
2021/09/16 00:05:24;;;;;;;4.10;1.73;;;;;;;20.87;66.22;96502.34;5092391;28;20957;-67
2021/09/16 00:07:50;;;;;;;1.80;1.70;;;;;;;20.91;66.59;96496.56;5092319;28;20182;-67
2021/09/16 00:10:16;;;;;;;2.37;2.17;;;;;;;20.86;66.53;96499.94;5092709;28;20189;-67
2021/09/16 00:12:42;;;;;;;3.80;1.87;;;;;;;20.84;66.35;96499.34;5085253;28;20182;-66
2021/09/16 00:15:09;;;;;;;3.07;1.57;;;;;;;20.87;66.15;96506.88;5090463;28;20198;-65
2021/09/16 00:17:34;;;;;;;2.30;1.47;;;;;;;20.90;65.98;96506.41;5092086;28;20446;-66
2021/09/16 00:20:00;;;;;;;2.53;1.80;;;;;;;20.96;66.14;96512.66;5091024;28;20416;-68
2021/09/16 00:22:26;;;;;;;2.60;1.80;;;;;;;20.97;65.76;96506.28;5092387;28;20706;-66
2021/09/16 00:24:51;;;;;;;2.50;1.70;;;;;;;20.96;65.97;96507.31;5092166;28;20193;-66
2021/09/16 00:27:17;;;;;;;1.90;1.80;;;;;;;20.98;65.95;96511.34;5099407;28;20213;-67
2021/09/16 00:29:42;;;;;;;1.83;1.70;;;;;;;20.91;66.07;96508.03;5091991;28;20185;-65
2021/09/16 00:32:09;;;;;;;1.73;1.63;;;;;;;20.84;65.64;96518.81;5092053;28;20189;-66
2021/09/16 00:34:35;;;;;;;1.90;1.57;;;;;;;20.89;66.06;96510.13;5091728;28;20209;-68
2021/09/16 00:37:00;;;;;;;1.70;1.60;;;;;;;20.92;65.58;96509.63;5090153;28;21311;-66
2021/09/16 00:39:26;;;;;;;1.70;1.60;;;;;;;21.00;65.70;96516.44;5090952;28;20189;-67
2021/09/16 00:41:51;;;;;;;1.60;1.50;;;;;;;20.95;65.62;96519.00;5091667;28;20201;-67
2021/09/16 00:44:17;;;;;;;2.30;1.90;;;;;;;20.86;66.11;96506.03;5082774;28;20267;-66
2021/09/16 00:46:43;;;;;;;1.60;1.50;;;;;;;20.92;65.92;96514.94;5092015;28;20205;-65
2021/09/16 00:49:08;;;;;;;3.40;1.47;;;;;;;20.92;65.81;96504.28;5091254;28;20186;-67
2021/09/16 00:51:35;;;;;;;3.63;1.97;;;;;;;20.90;66.03;96516.25;5091784;28;20243;-67
2021/09/16 00:54:02;;;;;;;2.20;1.73;;;;;;;20.95;65.74;96513.69;5089461;28;20189;-66
2021/09/16 00:56:28;;;;;;;2.67;1.37;;;;;;;20.85;66.15;96515.09;5090911;28;20440;-67
2021/09/16 00:58:56;;;;;;;1.90;1.70;;;;;;;20.85;66.16;96516.94;5091667;28;20427;-66
2021/09/16 01:01:21;;;;;;;2.17;1.70;;;;;;;20.90;65.92;96513.56;5091525;28;20490;-66
2021/09/16 01:03:47;;;;;;;1.70;1.60;;;;;;;20.87;65.88;96514.88;5090266;28;20463;-67
2021/09/16 01:06:12;;;;;;;2.80;1.50;;;;;;;20.86;66.01;96515.91;5091485;28;20699;-66
2021/09/16 01:08:39;;;;;;;1.70;1.60;;;;;;;20.91;66.00;96515.19;5091442;28;20188;-67
2021/09/16 01:11:05;;;;;;;1.73;1.40;;;;;;;20.87;65.80;96512.19;5091337;28;20186;-67
2021/09/16 01:13:31;;;;;;;2.77;1.60;;;;;;;20.92;65.97;96511.50;5082408;28;20419;-67
2021/09/16 01:15:58;;;;;;;2.50;1.60;;;;;;;20.92;65.63;96514.16;5090590;28;20224;-66
2021/09/16 01:18:24;;;;;;;2.40;1.40;;;;;;;20.89;65.88;96520.75;5091322;28;20191;-67
2021/09/16 01:20:50;;;;;;;4.83;1.60;;;;;;;20.93;65.93;96515.78;5093697;28;20435;-67
2021/09/16 01:23:16;;;;;;;3.20;2.00;;;;;;;20.97;65.98;96512.41;5093637;28;20512;-66
2021/09/16 01:25:41;;;;;;;3.13;1.47;;;;;;;21.01;65.65;96518.88;5093356;28;20205;-68
2021/09/16 01:28:07;;;;;;;1.73;1.40;;;;;;;20.97;65.76;96509.75;5092044;28;20181;-64
2021/09/16 01:30:33;;;;;;;1.47;1.37;;;;;;;21.02;65.97;96515.19;5091415;28;20660;-65
2021/09/16 01:32:58;;;;;;;5.20;1.70;;;;;;;20.96;66.19;96510.78;5089082;28;20604;-65
2021/09/16 01:35:25;;;;;;;1.93;1.60;;;;;;;20.99;66.36;96505.00;5089916;28;20652;-67
2021/09/16 01:37:50;;;;;;;1.40;1.30;;;;;;;21.05;66.23;96497.09;5089322;28;20201;-66
2021/09/16 01:40:16;;;;;;;2.77;1.50;;;;;;;21.05;66.09;96499.75;5091037;28;20451;-67
2021/09/16 01:42:44;;;;;;;1.93;1.73;;;;;;;21.05;66.31;96502.41;5083761;28;20209;-66
2021/09/16 01:45:15;;;;;;;2.60;1.60;;;;;;;21.01;66.47;96502.91;5106751;28;20201;-66
2021/09/16 01:47:42;;;;;;;2.67;1.80;;;;;;;20.99;66.81;96507.66;5090496;28;20455;-66
2021/09/16 01:50:08;;;;;;;2.43;1.43;;;;;;;20.98;67.07;96502.56;5092955;28;20411;-66
2021/09/16 01:52:33;;;;;;;3.47;2.27;;;;;;;20.95;67.12;96501.16;5093421;28;20439;-66
2021/09/16 01:54:59;;;;;;;1.80;1.50;;;;;;;20.96;67.30;96494.81;5094768;28;20423;-67
2021/09/16 01:57:24;;;;;;;1.67;1.37;;;;;;;20.93;67.34;96502.47;5094692;28;20212;-66
2021/09/16 01:59:50;;;;;;;1.93;1.73;;;;;;;20.89;67.37;96496.81;5094829;28;20189;-66
2021/09/16 02:02:16;;;;;;;3.93;1.57;;;;;;;20.85;67.35;96492.97;5094430;28;20284;-66
2021/09/16 02:04:41;;;;;;;1.60;1.50;;;;;;;20.74;67.84;96491.94;5095041;28;20181;-66
2021/09/16 02:07:07;;;;;;;1.93;1.50;;;;;;;20.83;67.33;96481.75;5094244;28;20209;-66
2021/09/16 02:09:32;;;;;;;2.97;1.20;;;;;;;20.65;67.75;96488.84;5094708;28;20276;-66
2021/09/16 02:11:58;;;;;;;4.80;1.30;;;;;;;20.53;67.65;96485.38;5091834;28;20185;-68
2021/09/16 02:14:23;;;;;;;1.60;1.30;;;;;;;20.25;68.86;96489.56;5087673;28;20186;-67
2021/09/16 02:16:49;;;;;;;4.00;1.57;;;;;;;20.54;68.38;96487.00;5092980;28;20535;-67
2021/09/16 02:19:14;;;;;;;1.87;1.40;;;;;;;20.66;67.62;96485.13;5094141;28;20212;-68
2021/09/16 02:21:40;;;;;;;2.60;1.40;;;;;;;20.58;67.63;96479.34;5094492;28;20193;-66
2021/09/16 02:24:06;;;;;;;4.17;1.33;;;;;;;20.63;67.52;96482.94;5094377;28;20218;-65
2021/09/16 02:26:31;;;;;;;1.63;1.20;;;;;;;20.65;67.30;96482.69;5094285;28;20284;-67
2021/09/16 02:28:57;;;;;;;2.97;1.40;;;;;;;20.96;66.68;96478.81;5093016;28;20262;-68
2021/09/16 02:31:22;;;;;;;1.57;1.47;;;;;;;21.07;65.85;96479.00;5093366;28;20192;-68
2021/09/16 02:33:48;;;;;;;2.30;1.50;;;;;;;21.08;65.82;96468.13;5094336;28;20178;-68
2021/09/16 02:36:13;;;;;;;2.23;1.50;;;;;;;21.08;65.98;96465.47;5086484;28;20699;-68
2021/09/16 02:38:40;;;;;;;1.50;1.30;;;;;;;21.12;65.74;96471.94;5096516;28;20182;-67
2021/09/16 02:41:06;;;;;;;2.43;1.20;;;;;;;21.08;65.93;96469.97;5093944;28;20185;-67
2021/09/16 02:43:31;;;;;;;1.70;1.13;;;;;;;21.10;65.89;96473.22;5085894;28;20592;-67
2021/09/16 02:45:57;;;;;;;4.03;1.60;;;;;;;21.14;65.89;96474.38;5093105;28;20806;-67
2021/09/16 02:48:22;;;;;;;1.87;1.20;;;;;;;21.14;65.51;96474.38;5093498;28;20189;-67
2021/09/16 02:50:48;;;;;;;1.60;1.50;;;;;;;21.14;65.63;96469.84;5093058;28;20193;-67
2021/09/16 02:53:14;;;;;;;2.80;1.20;;;;;;;21.16;65.50;96466.97;5085550;28;20181;-67
2021/09/16 02:55:39;;;;;;;5.73;1.80;;;;;;;21.13;66.05;96464.75;5093675;28;20221;-67
2021/09/16 02:58:05;;;;;;;1.53;1.40;;;;;;;21.14;65.94;96466.38;5093553;28;20182;-68
2021/09/16 03:00:30;;;;;;;2.07;1.87;;;;;;;21.13;66.23;96470.09;5093233;28;20178;-67
2021/09/16 03:02:56;;;;;;;1.40;1.30;;;;;;;21.16;66.36;96473.09;5093965;28;20244;-66
2021/09/16 03:05:21;;;;;;;3.23;1.77;;;;;;;21.13;66.05;96467.44;5093699;28;20643;-66
2021/09/16 03:07:47;;;;;;;3.73;1.80;;;;;;;21.10;66.42;96465.22;5091153;28;20227;-66
2021/09/16 03:10:13;;;;;;;2.67;1.40;;;;;;;21.10;66.46;96467.88;5092471;28;20189;-66
2021/09/16 03:12:40;;;;;;;1.37;1.27;;;;;;;21.10;66.07;96467.88;5086740;28;20265;-67
2021/09/16 03:15:06;;;;;;;2.10;1.60;;;;;;;21.15;66.33;96468.00;5092182;28;20945;-68
2021/09/16 03:17:31;;;;;;;1.43;1.33;;;;;;;21.09;66.37;96463.59;5093073;28;20536;-67
2021/09/16 03:19:57;;;;;;;1.87;1.60;;;;;;;21.16;65.85;96461.63;5093369;28;20415;-65
2021/09/16 03:22:22;;;;;;;2.40;1.63;;;;;;;21.08;65.97;96462.81;5088188;28;20206;-66
2021/09/16 03:24:48;;;;;;;3.33;1.67;;;;;;;21.14;65.76;96455.72;5089712;28;20186;-66
2021/09/16 03:27:14;;;;;;;2.57;1.40;;;;;;;21.16;65.51;96446.44;5091735;28;20209;-65
2021/09/16 03:29:39;;;;;;;2.70;1.77;;;;;;;21.20;65.30;96454.75;5091922;28;20193;-65
2021/09/16 03:32:05;;;;;;;2.43;1.40;;;;;;;21.12;65.30;96457.81;5085752;28;20186;-69
2021/09/16 03:34:31;;;;;;;2.33;1.83;;;;;;;21.13;65.45;96462.09;5087025;28;20239;-66
2021/09/16 03:36:57;;;;;;;3.57;1.60;;;;;;;21.07;66.36;96463.03;5093125;28;20447;-66
2021/09/16 03:39:22;;;;;;;2.07;1.57;;;;;;;21.17;65.95;96457.91;5093198;28;20255;-68
2021/09/16 03:41:48;;;;;;;2.00;1.60;;;;;;;21.10;66.22;96462.56;5092620;28;20742;-66
2021/09/16 03:44:13;;;;;;;3.30;1.90;;;;;;;21.04;66.92;96463.53;5085915;28;20182;-66
2021/09/16 03:46:39;;;;;;;5.00;1.77;;;;;;;21.16;66.41;96458.97;5093465;28;20212;-66
2021/09/16 03:49:05;;;;;;;2.53;1.53;;;;;;;21.16;66.71;96453.63;5092283;28;20182;-65
2021/09/16 03:51:30;;;;;;;1.60;1.50;;;;;;;21.12;66.55;96457.81;5093468;28;20182;-67
2021/09/16 03:53:56;;;;;;;1.97;1.70;;;;;;;21.12;67.21;96463.94;5092897;28;20174;-67
2021/09/16 03:56:21;;;;;;;2.90;1.60;;;;;;;21.11;67.34;96464.19;5093558;28;20683;-68
2021/09/16 03:58:47;;;;;;;5.10;1.60;;;;;;;21.09;67.22;96463.59;5093291;28;20208;-66
2021/09/16 04:01:12;;;;;;;3.33;2.07;;;;;;;21.10;67.24;96458.06;5092864;28;20192;-67
2021/09/16 04:03:38;;;;;;;5.63;1.77;;;;;;;21.08;67.34;96462.00;5086104;28;20210;-67
2021/09/16 04:06:04;;;;;;;3.10;2.10;;;;;;;21.02;67.58;96461.09;5091640;28;20615;-66
2021/09/16 04:08:29;;;;;;;3.17;1.80;;;;;;;21.02;67.87;96458.41;5090240;28;20221;-66
2021/09/16 04:10:55;;;;;;;3.10;1.80;;;;;;;21.05;67.85;96459.78;5092356;28;20181;-68
2021/09/16 04:13:20;;;;;;;3.60;1.90;;;;;;;21.07;67.79;96463.03;5090535;28;20182;-66
2021/09/16 04:15:46;;;;;;;1.90;1.80;;;;;;;21.08;67.97;96454.00;5092463;28;20205;-65
2021/09/16 04:18:11;;;;;;;2.43;1.67;;;;;;;21.06;67.68;96450.75;5092211;28;20184;-65
2021/09/16 04:20:37;;;;;;;1.80;1.70;;;;;;;20.99;68.29;96448.25;5092900;28;20186;-67
2021/09/16 04:23:03;;;;;;;1.83;1.73;;;;;;;21.00;68.21;96458.66;5092115;28;20208;-69
2021/09/16 04:25:29;;;;;;;2.87;1.90;;;;;;;21.04;68.16;96458.19;5092063;28;20711;-68
2021/09/16 04:27:55;;;;;;;4.53;2.10;;;;;;;21.02;68.25;96451.25;5091554;28;20197;-67
2021/09/16 04:30:21;;;;;;;2.03;1.83;;;;;;;20.77;69.19;96464.88;5092343;28;20528;-68
2021/09/16 04:32:47;;;;;;;3.93;2.20;;;;;;;20.82;68.75;96469.47;5087045;28;20793;-67
2021/09/16 04:35:13;;;;;;;2.50;2.20;;;;;;;20.93;68.59;96471.28;5091934;28;20190;-66
2021/09/16 04:37:38;;;;;;;6.30;2.17;;;;;;;20.79;68.75;96472.63;5092212;28;20224;-68
2021/09/16 04:40:05;;;;;;;3.50;1.83;;;;;;;20.77;68.87;96474.72;5101802;28;20185;-67
2021/09/16 04:42:30;;;;;;;2.73;1.80;;;;;;;20.51;69.64;96474.16;5107084;28;20205;-68
2021/09/16 04:44:56;;;;;;;3.10;2.80;;;;;;;20.51;70.02;96468.84;5105528;28;20450;-68
2021/09/16 04:47:22;;;;;;;4.50;2.03;;;;;;;20.60;69.99;96480.72;5104197;28;20201;-65
2021/09/16 04:49:47;;;;;;;6.47;2.57;;;;;;;20.60;69.84;96472.75;5105640;28;20645;-67
2021/09/16 04:52:13;;;;;;;2.20;2.00;;;;;;;20.14;72.03;96472.56;5105085;28;20182;-67
2021/09/16 04:54:38;;;;;;;4.57;2.03;;;;;;;20.35;71.21;96471.16;5102725;28;20213;-68
2021/09/16 04:57:04;;;;;;;4.70;1.70;;;;;;;20.00;72.45;96469.31;5103652;28;20206;-66
2021/09/16 04:59:30;;;;;;;3.13;2.43;;;;;;;20.35;71.39;96476.47;5091149;28;20185;-66
2021/09/16 05:01:55;;;;;;;2.93;2.50;;;;;;;20.47;70.94;96475.66;5090983;28;20178;-67
2021/09/16 05:04:21;;;;;;;2.60;2.27;;;;;;;20.77;69.97;96472.84;5085287;28;20590;-66
2021/09/16 05:06:46;;;;;;;3.60;2.30;;;;;;;20.62;70.08;96477.81;5090267;28;20217;-66
2021/09/16 05:09:12;;;;;;;2.70;2.50;;;;;;;20.42;71.70;96468.38;5090845;28;20265;-66
2021/09/16 05:11:41;;;;;;;6.60;2.80;;;;;;;20.72;70.64;96467.41;5091474;28;20181;-67
2021/09/16 05:14:11;;;;;;;2.43;2.20;;;;;;;20.35;72.68;96473.81;5091152;28;20193;-67
2021/09/16 05:16:38;;;;;;;4.27;2.70;;;;;;;20.66;71.28;96484.31;5091329;28;20455;-66
2021/09/16 05:19:03;;;;;;;6.37;2.83;;;;;;;20.32;72.86;96487.59;5090187;28;20435;-66
2021/09/16 05:21:29;;;;;;;7.43;2.60;;;;;;;20.41;72.70;96488.84;5090677;28;20424;-66
2021/09/16 05:23:55;;;;;;;5.20;2.50;;;;;;;20.64;71.99;96489.06;5090655;28;20331;-67
2021/09/16 05:26:20;;;;;;;6.33;2.43;;;;;;;20.00;74.45;96490.59;5090483;28;20662;-67
2021/09/16 05:28:46;;;;;;;6.23;2.70;;;;;;;19.69;76.21;96495.13;5090907;28;20277;-66
2021/09/16 05:31:11;;;;;;;3.50;2.80;;;;;;;20.17;74.36;96487.22;5086996;28;20193;-67
2021/09/16 05:33:37;;;;;;;4.03;2.53;;;;;;;20.09;74.49;96486.56;5091095;28;20177;-67
2021/09/16 05:36:04;;;;;;;3.80;2.83;;;;;;;20.07;75.00;96483.31;5090617;28;20210;-67
2021/09/16 05:38:29;;;;;;;3.90;2.53;;;;;;;20.37;73.85;96479.72;5089898;28;20181;-68
2021/09/16 05:40:55;;;;;;;3.47;2.83;;;;;;;20.40;73.23;96486.44;5088729;28;20506;-69
2021/09/16 05:43:21;;;;;;;3.70;2.73;;;;;;;19.98;75.96;96490.00;5090725;28;20239;-66
2021/09/16 05:45:46;;;;;;;3.20;2.50;;;;;;;19.97;76.16;96490.25;5090458;28;20205;-67
2021/09/16 05:48:12;;;;;;;5.80;2.80;;;;;;;19.94;76.44;96494.16;5090762;28;20186;-66
2021/09/16 05:50:38;;;;;;;6.30;3.00;;;;;;;20.00;76.32;96487.94;5090927;28;20224;-67
2021/09/16 05:53:03;;;;;;;3.93;2.50;;;;;;;20.01;76.44;96488.72;5089802;28;20265;-66
2021/09/16 05:55:29;;;;;;;7.00;2.40;;;;;;;19.60;78.25;96488.53;5091206;28;20190;-66
2021/09/16 05:57:55;;;;;;;5.77;3.00;;;;;;;20.00;76.21;96493.25;5089936;28;20186;-67
2021/09/16 06:00:23;;;;;;;6.70;3.10;;;;;;;20.19;75.64;96490.47;5091177;28;20272;-66
2021/09/16 06:02:49;;;;;;;4.23;2.70;;;;;;;20.16;75.92;96493.63;5090557;28;20482;-68
2021/09/16 06:05:15;;;;;;;3.73;2.30;;;;;;;20.45;75.09;96489.22;5090122;28;20432;-66
2021/09/16 06:07:40;;;;;;;6.63;3.00;;;;;;;20.60;74.27;96490.59;5090278;28;21005;-68
2021/09/16 06:10:06;;;;;;;3.80;2.80;;;;;;;20.72;73.55;96494.84;5090613;28;20196;-66
2021/09/16 06:12:33;;;;;;;2.97;2.43;;;;;;;20.82;73.11;96493.44;5085454;28;20186;-66
2021/09/16 06:14:59;;;;;;;3.97;2.80;;;;;;;20.88;72.93;96497.84;5088421;28;20431;-66
2021/09/16 06:17:24;;;;;;;7.27;2.83;;;;;;;20.97;72.74;96499.09;5090322;28;21027;-66
2021/09/16 06:19:50;;;;;;;14.13;2.93;;;;;;;21.05;72.56;96502.41;5090923;28;20430;-65
2021/09/16 06:22:16;;;;;;;10.47;3.67;;;;;;;21.11;72.57;96491.63;5090563;28;20288;-68
2021/09/16 06:24:42;;;;;;;7.20;2.80;;;;;;;21.19;72.26;96490.44;5090170;28;20558;-67
2021/09/16 06:27:07;;;;;;;7.20;2.90;;;;;;;21.21;72.05;96498.22;5090362;28;20493;-67
2021/09/16 06:29:33;;;;;;;7.57;3.10;;;;;;;21.27;72.18;96494.56;5093227;28;20207;-67
2021/09/16 06:31:58;;;;;;;8.90;2.57;;;;;;;21.35;71.92;96502.22;5090229;28;20178;-67
2021/09/16 06:34:25;;;;;;;8.13;3.20;;;;;;;21.36;71.57;96503.00;5090597;28;20193;-67
2021/09/16 06:36:51;;;;;;;8.23;3.10;;;;;;;21.42;71.54;96507.41;5093919;28;20241;-66
2021/09/16 06:39:17;;;;;;;17.83;3.60;;;;;;;21.36;70.93;96508.34;5094450;28;20469;-67
2021/09/16 06:41:43;;;;;;;11.30;3.60;;;;;;;21.42;71.19;96513.50;5088436;28;20416;-67
2021/09/16 06:44:09;;;;;;;12.20;3.73;;;;;;;21.41;71.07;96503.09;5094220;28;20259;-66
2021/09/16 06:46:34;;;;;;;7.47;2.90;;;;;;;21.43;70.71;96511.66;5094035;28;20476;-68
2021/09/16 06:49:00;;;;;;;8.73;2.97;;;;;;;21.25;71.49;96516.13;5093451;28;20289;-66
2021/09/16 06:51:26;;;;;;;11.23;2.80;;;;;;;21.32;71.33;96516.78;5093422;28;20185;-68
2021/09/16 06:53:53;;;;;;;5.93;2.50;;;;;;;21.15;72.36;96519.41;5094143;28;20603;-66
2021/09/16 06:56:19;;;;;;;3.97;2.40;;;;;;;21.12;72.47;96519.09;5094015;28;20448;-66
2021/09/16 06:58:44;;;;;;;3.50;2.10;;;;;;;21.17;72.21;96521.84;5093770;28;20477;-66
2021/09/16 07:01:10;;;;;;;2.93;2.03;;;;;;;21.07;72.12;96516.31;5092985;28;20190;-66
2021/09/16 07:03:35;;;;;;;5.60;2.50;;;;;;;21.13;72.11;96516.16;5093884;28;20205;-70
2021/09/16 07:06:01;;;;;;;5.60;2.37;;;;;;;21.10;72.24;96522.00;5093573;28;20198;-68
2021/09/16 07:08:26;;;;;;;4.40;2.50;;;;;;;21.17;72.19;96527.97;5093788;28;20511;-67
2021/09/16 07:10:52;;;;;;;3.30;2.50;;;;;;;21.00;72.46;96527.91;5087453;28;20189;-67
2021/09/16 07:13:18;;;;;;;7.03;2.80;;;;;;;20.91;73.14;96529.34;5093510;28;20177;-68
2021/09/16 07:15:43;;;;;;;7.53;3.27;;;;;;;21.05;73.11;96534.38;5093316;28;20185;-68
2021/09/16 07:18:09;;;;;;;4.30;3.00;;;;;;;21.13;72.60;96536.69;5092334;28;20205;-66
2021/09/16 07:20:34;;;;;;;5.53;3.07;;;;;;;21.14;72.38;96536.44;5093626;28;20186;-68
2021/09/16 07:23:00;;;;;;;5.53;2.57;;;;;;;20.99;73.52;96528.97;5093088;28;20527;-67
2021/09/16 07:25:25;;;;;;;6.93;3.50;;;;;;;21.04;73.35;96538.91;5093214;28;20181;-66
2021/09/16 07:27:51;;;;;;;4.90;3.30;;;;;;;21.07;73.63;96537.63;5091756;28;20178;-66
2021/09/16 07:30:17;;;;;;;7.10;2.90;;;;;;;20.87;74.63;96552.13;5093008;28;20641;-67
2021/09/16 07:32:42;;;;;;;6.20;3.37;;;;;;;20.70;75.78;96555.47;5092940;28;20647;-66
2021/09/16 07:35:09;;;;;;;7.30;3.43;;;;;;;20.34;76.46;96549.34;5092606;28;20193;-69
2021/09/16 07:37:34;;;;;;;7.10;2.80;;;;;;;20.26;77.33;96555.81;5092354;28;20224;-64
2021/09/16 07:40:00;;;;;;;6.00;2.63;;;;;;;20.31;77.15;96559.66;5092682;28;20900;-68
2021/09/16 07:42:27;;;;;;;4.53;3.00;;;;;;;20.38;77.41;96563.84;5087446;28;20213;-68
2021/09/16 07:44:53;;;;;;;3.83;2.33;;;;;;;20.19;77.70;96560.47;5092747;28;20428;-65
2021/09/16 07:47:18;;;;;;;3.70;2.60;;;;;;;20.21;78.04;96569.03;5073064;28;21075;-66
2021/09/16 07:49:45;;;;;;;2.80;2.60;;;;;;;20.25;77.69;96569.38;5092691;28;20280;-67
2021/09/16 07:52:14;;;;;;;7.73;2.47;;;;;;;20.15;78.50;96569.13;5092403;28;20189;-67
2021/09/16 07:54:40;;;;;;;3.33;2.53;;;;;;;20.10;78.16;96586.56;5092727;28;20489;-67
2021/09/16 07:57:06;;;;;;;2.63;2.07;;;;;;;19.70;79.55;96594.28;5091459;28;20443;-69
2021/09/16 07:59:31;;;;;;;3.20;1.60;;;;;;;19.22;80.63;96594.06;5092387;28;20890;-66
2021/09/16 08:01:57;;;;;;;3.37;1.60;;;;;;;19.26;80.59;96594.44;5092255;28;20208;-68
2021/09/16 08:04:23;;;;;;;2.67;1.63;;;;;;;19.29;80.83;96599.28;5092574;28;20268;-67
2021/09/16 08:06:48;;;;;;;3.87;1.73;;;;;;;19.34;80.54;96594.13;5091647;28;20205;-70
2021/09/16 08:09:14;;;;;;;2.77;2.57;;;;;;;19.65;79.11;96592.31;5092076;28;20182;-67
2021/09/16 08:11:39;;;;;;;4.70;2.37;;;;;;;19.59;79.21;96598.53;5086845;28;20182;-66
2021/09/16 08:14:06;;;;;;;3.23;2.77;;;;;;;19.49;80.33;96605.19;5091348;28;20551;-67
2021/09/16 08:16:32;;;;;;;5.87;2.60;;;;;;;19.13;81.41;96601.53;5092048;28;20216;-68
2021/09/16 08:18:57;;;;;;;2.73;2.30;;;;;;;19.13;81.07;96604.19;5092253;28;20503;-67
2021/09/16 08:21:23;;;;;;;3.43;3.13;;;;;;;19.02;81.02;96604.94;5092222;28;20185;-66
2021/09/16 08:23:49;;;;;;;4.50;3.13;;;;;;;19.30;80.26;96607.06;5091515;28;20213;-64
2021/09/16 08:26:15;;;;;;;3.50;3.20;;;;;;;19.26;80.58;96615.69;5092223;28;20532;-65
2021/09/16 08:28:41;;;;;;;2.63;2.43;;;;;;;19.16;80.33;96617.00;5098924;28;20221;-66
2021/09/16 08:31:07;;;;;;;3.67;3.37;;;;;;;19.15;80.61;96614.59;5091777;28;20513;-68
2021/09/16 08:33:33;;;;;;;4.00;3.70;;;;;;;19.06;80.43;96611.41;5074256;28;20295;-68
2021/09/16 08:35:58;;;;;;;6.17;5.57;;;;;;;19.21;80.33;96619.03;5092774;28;20436;-69
2021/09/16 08:38:24;;;;;;;3.87;3.10;;;;;;;19.45;78.35;96619.94;5097039;28;20827;-66
2021/09/16 08:40:50;;;;;;;3.77;3.40;;;;;;;19.36;78.85;96623.13;5087710;28;20636;-64
2021/09/16 08:43:18;;;;;;;1.20;1.10;;;;;;;19.23;79.30;96626.75;5091662;28;20189;-67
2021/09/16 08:45:47;;;;;;;1.60;1.50;;;;;;;18.82;80.45;96621.81;5091920;28;20202;-67
2021/09/16 08:48:14;;;;;;;0.90;0.80;;;;;;;18.76;80.80;96630.69;5091753;28;20848;-67
2021/09/16 08:50:39;;;;;;;1.67;1.20;;;;;;;18.93;80.31;96630.91;5090830;28;20430;-68
2021/09/16 08:53:05;;;;;;;2.20;2.10;;;;;;;19.09;79.79;96631.41;5091332;28;20415;-66
2021/09/16 08:55:32;;;;;;;2.13;1.93;;;;;;;19.08;79.54;96638.56;5091976;28;20251;-67
2021/09/16 08:58:00;;;;;;;1.40;1.30;;;;;;;19.23;79.03;96648.00;5089615;28;20178;-68
2021/09/16 09:00:28;;;;;;;1.47;1.37;;;;;;;18.53;80.22;96639.25;5090034;28;20432;-69
2021/09/16 09:02:57;;;;;;;1.50;1.40;;;;;;;18.45;81.47;96652.78;5094003;28;20459;-66
2021/09/16 09:05:23;;;;;;;3.07;1.50;;;;;;;18.36;81.69;96646.94;5091915;28;20424;-66
2021/09/16 09:07:51;;;;;;;1.50;1.30;;;;;;;18.46;80.89;96644.59;5091374;28;20959;-65
2021/09/16 09:10:36;;;;;;;1.20;1.10;;;;;;;18.44;81.29;96657.25;5089726;28;20431;-68
2021/09/16 09:13:04;;;;;;;2.80;1.80;;;;;;;18.90;80.11;96649.13;5090037;28;20427;-67
2021/09/16 09:15:29;;;;;;;1.33;1.20;;;;;;;18.54;80.40;96654.94;5091522;28;20420;-66
2021/09/16 09:18:08;;;;;;;2.30;1.77;;;;;;;18.70;80.01;96655.41;5091089;28;20453;-67
2021/09/16 09:20:53;;;;;;;1.77;1.43;;;;;;;18.63;80.41;96655.47;5090478;28;20677;-65
2021/09/16 09:23:26;;;;;;;1.50;1.40;;;;;;;18.31;81.33;96660.00;5083683;28;20463;-67
2021/09/16 09:25:52;;;;;;;1.40;1.10;;;;;;;18.24;81.57;96652.94;5090939;28;20454;-68
2021/09/16 09:28:33;;;;;;;1.83;1.30;;;;;;;18.60;80.72;96660.41;5090496;28;20423;-67
2021/09/16 09:31:03;;;;;;;2.20;2.00;;;;;;;18.19;81.92;96658.06;5089813;28;20490;-67
2021/09/16 09:33:31;;;;;;;2.40;1.80;;;;;;;18.48;81.09;96652.34;5089973;28;20416;-67
2021/09/16 09:36:07;;;;;;;1.80;1.70;;;;;;;18.24;81.61;96662.72;5091299;28;20458;-67
2021/09/16 09:38:33;;;;;;;3.17;1.63;;;;;;;18.45;80.88;96666.03;5090001;28;20910;-68
2021/09/16 09:41:01;;;;;;;3.10;2.90;;;;;;;18.42;80.82;96665.44;5085989;28;20443;-68
2021/09/16 09:43:32;;;;;;;4.57;4.00;;;;;;;18.60;80.49;96665.72;5091134;28;20369;-67
2021/09/16 09:45:59;;;;;;;7.50;5.27;;;;;;;18.44;80.72;96669.72;5090880;28;20559;-66
2021/09/16 09:48:24;;;;;;;4.20;3.83;;;;;;;18.55;80.55;96669.81;5091115;28;20430;-66
2021/09/16 09:50:51;;;;;;;4.70;4.20;;;;;;;18.31;81.01;96665.31;5090183;28;20431;-67
2021/09/16 09:53:17;;;;;;;16.87;5.77;;;;;;;18.41;80.13;96668.28;5090664;28;20174;-67
2021/09/16 09:55:43;;;;;;;5.57;5.07;;;;;;;18.52;79.95;96670.28;5090146;28;20480;-67
2021/09/16 09:58:08;;;;;;;6.73;6.13;;;;;;;18.53;80.22;96668.44;5089807;28;20186;-67
2021/09/16 10:00:34;;;;;;;8.33;7.50;;;;;;;18.27;81.24;96671.03;5091413;28;20842;-68
2021/09/16 10:03:00;;;;;;;8.00;7.30;;;;;;;18.07;81.54;96668.53;5091145;28;20220;-67
2021/09/16 10:05:29;;;;;;;10.43;8.70;;;;;;;18.29;81.02;96670.84;5091254;28;20182;-67
2021/09/16 10:07:56;;;;;;;10.93;9.73;;;;;;;18.51;80.20;96668.66;5089771;28;20416;-67
2021/09/16 10:10:22;;;;;;;12.73;11.33;;;;;;;18.37;80.68;96665.28;5090256;28;20426;-68
2021/09/16 10:12:51;;;;;;;11.07;9.60;;;;;;;18.08;80.96;96669.34;5091294;28;20513;-67
2021/09/16 10:15:20;;;;;;;13.13;10.90;;;;;;;18.21;80.71;96669.25;5094151;28;20431;-66
2021/09/16 10:17:47;;;;;;;13.97;11.43;;;;;;;18.21;80.45;96671.91;5096100;28;20440;-68
2021/09/16 10:20:17;;;;;;;18.40;11.47;;;;;;;18.20;80.73;96678.25;5095013;28;20419;-67
2021/09/16 10:22:51;;;;;;;18.10;14.17;;;;;;;18.52;79.14;96680.88;5093447;28;20454;-67
2021/09/16 10:25:20;;;;;;;16.60;13.17;;;;;;;18.11;80.13;96682.19;5086655;28;20427;-67
2021/09/16 10:27:48;;;;;;;18.17;13.23;;;;;;;18.10;80.21;96675.25;5093028;28;20457;-65
2021/09/16 10:30:22;;;;;;;18.47;14.30;;;;;;;17.98;80.61;96680.41;5094327;28;20416;-67
2021/09/16 10:33:09;;;;;;;15.20;12.97;;;;;;;18.01;80.36;96685.28;5094440;28;20469;-66
2021/09/16 10:35:40;;;;;;;16.00;12.60;;;;;;;18.38;79.46;96677.50;5098932;28;20481;-65
2021/09/16 10:38:35;;;;;;;16.30;12.83;;;;;;;18.17;79.10;96670.69;5093412;28;20445;-65
2021/09/16 10:41:19;;;;;;;13.57;12.10;;;;;;;18.01;79.76;96679.19;5089135;28;20435;-66
2021/09/16 10:43:58;;;;;;;18.10;13.70;;;;;;;18.10;81.30;96676.03;5090609;28;20484;-66
2021/09/16 10:46:38;;;;;;;17.33;13.23;;;;;;;17.98;79.86;96679.59;5086668;28;20435;-67
2021/09/16 10:49:22;;;;;;;20.07;13.77;;;;;;;18.33;79.25;96689.78;5093585;28;20457;-67
2021/09/16 10:52:09;;;;;;;27.43;16.33;;;;;;;17.98;80.00;96695.50;5094784;28;20431;-65
2021/09/16 10:54:35;;;;;;;24.87;17.80;;;;;;;17.89;79.76;96698.38;5093701;28;20918;-66
2021/09/16 10:57:12;;;;;;;25.43;16.47;;;;;;;17.96;79.67;96698.31;5094351;28;20812;-66
2021/09/16 10:59:52;;;;;;;26.97;18.90;;;;;;;17.77;79.50;96700.03;5094487;28;20450;-66
2021/09/16 11:02:22;;;;;;;27.93;18.17;;;;;;;17.52;80.26;96697.28;5086947;28;20482;-66
2021/09/16 11:04:57;;;;;;;22.77;18.17;;;;;;;18.03;78.86;96698.31;5104314;28;20968;-68
2021/09/16 11:07:32;;;;;;;24.60;16.17;;;;;;;17.97;77.37;96694.69;5108170;28;21102;-68
2021/09/16 11:10:13;;;;;;;21.60;15.47;;;;;;;18.12;76.01;96691.75;5102080;28;20450;-66
2021/09/16 11:12:39;;;;;;;19.93;16.10;;;;;;;18.13;76.36;96697.88;5089595;28;20423;-67
2021/09/16 11:15:05;;;;;;;20.20;15.77;;;;;;;18.31;76.03;96689.19;5093299;28;20507;-67
2021/09/16 11:17:31;;;;;;;27.53;16.50;;;;;;;18.24;75.65;96698.00;5092484;28;21091;-67
2021/09/16 11:19:56;;;;;;;23.50;16.27;;;;;;;18.64;74.15;96693.47;5093783;28;20416;-67
2021/09/16 11:22:22;;;;;;;23.87;17.10;;;;;;;18.76;73.92;96694.38;5093344;28;20707;-64
2021/09/16 11:24:49;;;;;;;25.53;16.33;;;;;;;18.61;73.99;96696.53;5091996;28;20186;-67
2021/09/16 11:27:29;;;;;;;25.53;16.10;;;;;;;18.79;72.64;96701.88;5093462;28;20223;-66
2021/09/16 11:29:56;;;;;;;28.00;17.20;;;;;;;19.04;71.52;96703.75;5093003;28;20427;-65